Latest Weather Observations for Cummins Airport

IDS60801

Issued at 5:31 am CST Sunday 6 September 2026 (issued every 10 minutes, with the page automatically refreshed every 10 minutes)

About weather observations | Map of weather stations | Latest weather observations for SA | Other Formats
Station Details ID: 018217 Name: CUMMINS AERO Lat: -34.25 Lon: 135.71 Height: 60.11 m
Data from the previous 72 hours. | See also: Recent months at Cummins Airport
Date/Time
CST
Temp
°C
App
Temp
°C
Dew
Point
°C
Rel
Hum
%
Delta-T
°C
Wind Press
QNH
hPa
Press
MSL
hPa
Rain since
9am
mm
Dir  Spd
km/h
Gust
km/h
Spd
kts
Gust
kts
06/05:30am 11.0 9.5 8.4 84 1.3 WSW 6 9 3 5 1022.5 1022.5 0.0
06/05:00am 11.0 9.7 7.7 80 1.6 WSW 4 9 2 5 1022.1 1022.1 0.0
06/04:30am 10.5 8.9 8.1 85 1.2 NW 6 7 3 4 1022.0 1022.0 0.0
06/04:00am 10.8 10.3 7.7 81 1.5 CALM 0 2 0 1 1021.9 1021.9 0.0
06/03:30am 11.0 9.1 7.5 79 1.7 WSW 7 11 4 6 1021.9 1021.9 0.0
06/03:00am 10.3 8.7 7.9 85 1.2 WSW 6 7 3 4 1021.7 1021.7 0.0
06/02:30am 10.3 8.0 7.4 82 1.4 WSW 9 11 5 6 1021.8 1021.8 0.0
06/02:00am 10.9 7.8 7.4 79 1.7 SW 13 15 7 8 1022.1 1022.1 0.0
06/01:30am 11.1 8.6 8.1 82 1.5 WSW 11 13 6 7 1022.3 1022.3 0.0
06/01:00am 11.2 9.6 7.9 80 1.6 W 6 9 3 5 1022.4 1022.4 0.0
06/12:30am 11.0 9.2 8.1 82 1.4 W 7 9 4 5 1022.3 1022.3 0.0
06/12:00am 11.0 9.2 8.1 82 1.4 W 7 11 4 6 1022.3 1022.3 0.0
 
Date/Time
CST
Temp
°C
App
Temp
°C
Dew
Point
°C
Rel
Hum
%
Delta-T
°C
Wind Press
QNH
hPa
Press
MSL
hPa
Rain since
9am
mm
Dir  Spd
km/h
Gust
km/h
Spd
kts
Gust
kts
05/11:30pm 11.2 9.4 7.9 80 1.6 WSW 7 9 4 5 1022.5 1022.5 0.0
05/11:00pm 11.3 8.8 8.2 81 1.5 W 11 15 6 8 1022.7 1022.7 0.0
05/10:30pm 11.4 9.2 7.9 79 1.7 WNW 9 13 5 7 1022.7 1022.7 0.0
05/10:00pm 11.0 9.4 8.6 85 1.2 NW 7 7 4 4 1022.6 1022.6 0.0
05/09:30pm 11.2 9.7 8.4 83 1.4 WNW 6 7 3 4 1022.2 1022.2 0.0
05/09:00pm 11.2 9.0 7.9 80 1.6 W 9 11 5 6 1021.8 1021.8 0.0
05/08:30pm 10.8 8.6 8.0 83 1.4 W 9 13 5 7 1021.4 1021.4 0.0
05/08:00pm 11.1 8.6 8.3 83 1.4 WSW 11 13 6 7 1020.8 1020.8 0.0
05/07:30pm 11.3 8.8 8.0 80 1.6 W 11 13 6 7 1020.5 1020.5 0.0
05/07:00pm 11.4 8.0 7.7 78 1.8 W 15 19 8 10 1020.1 1020.1 0.0
05/06:30pm 11.7 8.2 7.4 75 2.1 W 15 17 8 9 1019.8 1019.8 0.0
05/06:00pm 11.8 7.9 7.1 73 2.3 W 17 22 9 12 1019.6 1019.6 0.0
05/05:30pm 12.8 7.9 6.8 67 2.9 W 22 30 12 16 1019.1 1019.1 0.0
05/05:00pm 13.4 7.3 6.5 63 3.3 W 28 33 15 18 1018.8 1018.8 0.0
05/04:30pm 13.7 8.0 6.6 62 3.4 WSW 26 35 14 19 1018.5 1018.5 0.0
05/04:00pm 14.1 7.6 6.7 61 3.6 W 30 43 16 23 1018.5 1018.5 0.0
05/03:30pm 15.7 9.0 7.2 57 4.2 W 32 41 17 22 1018.2 1018.2 0.0
05/03:00pm 14.0 6.3 5.4 56 4.0 W 35 48 19 26 1017.8 1017.8 0.0
05/02:30pm 14.4 6.6 6.5 59 3.8 WSW 37 50 20 27 1017.6 1017.6 0.0
05/02:00pm 14.4 6.9 7.9 65 3.2 WSW 37 52 20 28 1017.3 1017.3 0.0
05/01:30pm 14.7 6.7 7.5 62 3.6 W 39 50 21 27 1017.0 1017.0 0.0
05/01:00pm 14.3 6.6 7.1 62 3.5 WSW 37 48 20 26 1017.3 1017.3 0.0
05/12:51pm 14.1 6.7 6.7 61 3.6 WSW 35 46 19 25 1017.4 1017.4 0.0
05/12:30pm 15.7 7.5 6.4 54 4.5 W 39 54 21 29 1017.0 1017.0 0.0
05/12:27pm 15.7 7.1 6.4 54 4.5 W 41 59 22 32 1017.0 1017.0 0.0
05/12:23pm 15.1 6.0 5.9 54 4.4 W 43 59 23 32 1017.0 1017.0 0.0
05/12:12pm 14.5 7.1 6.6 59 3.8 W 35 54 19 29 1016.9 1016.9 0.0
05/12:00pm 13.7 5.0 7.7 67 3.0 W 43 54 23 29 1016.9 1016.9 0.0
05/11:54am 14.3 5.5 7.4 63 3.4 WSW 43 54 23 29 1016.8 1016.8 0.0
05/11:30am 14.5 6.2 7.8 64 3.3 WSW 41 54 22 29 1016.4 1016.4 0.0
05/11:25am 15.2 7.0 8.0 62 3.6 W 41 59 22 32 1016.3 1016.3 0.0
05/11:18am 15.0 6.1 7.8 62 3.6 W 44 59 24 32 1016.1 1016.1 0.0
05/11:08am 15.0 6.6 7.3 60 3.8 WSW 41 59 22 32 1016.1 1016.1 0.0
05/11:00am 15.3 7.5 8.1 62 3.6 W 39 50 21 27 1016.2 1016.2 0.0
05/10:49am 14.7 7.0 8.6 67 3.1 W 39 52 21 28 1016.2 1016.2 0.0
05/10:30am 14.0 4.4 8.0 67 3.0 WSW 48 65 26 35 1015.7 1015.7 0.0
05/10:22am 14.8 5.7 8.3 65 3.3 W 46 65 25 35 1015.5 1015.5 0.0
05/10:15am 14.5 5.8 8.5 67 3.0 W 44 56 24 30 1015.6 1015.6 0.0
05/10:04am 14.0 6.0 7.5 65 3.2 W 39 57 21 31 1015.5 1015.5 0.0
05/10:00am 14.2 6.6 9.2 72 2.6 W 39 52 21 28 1015.6 1015.6 0.0
05/09:30am 14.4 6.3 8.6 68 2.9 W 41 56 22 30 1015.2 1015.2 0.0
05/09:00am 13.9 5.3 6.3 60 3.6 WSW 41 54 22 29 1014.9 1014.9 0.2
05/08:54am 13.8 5.6 6.4 61 3.6 WSW 39 52 21 28 1014.8 1014.8 0.2
05/08:39am 13.4 6.1 7.4 67 2.9 WSW 35 56 19 30 1014.6 1014.6 0.2
05/08:30am 13.6 6.2 8.4 71 2.6 W 37 50 20 27 1014.6 1014.6 0.2
05/08:00am 12.4 6.9 9.1 80 1.7 W 28 39 15 21 1013.9 1013.9 0.2
05/07:30am 11.9 6.5 8.2 78 1.8 W 26 33 14 18 1013.4 1013.4 0.2
05/07:00am 12.0 6.7 9.9 87 1.1 W 28 37 15 20 1013.0 1013.0 0.2
05/06:46am 11.9 5.9 10.1 89 0.9 W 32 39 17 21 1012.7 1012.7 0.2
05/06:30am 11.8 6.3 10.5 92 0.7 W 30 48 16 26 1012.5 1012.5 0.2
05/06:22am 11.7 6.2 10.4 92 0.7 W 30 39 16 21 1012.3 1012.3 0.2
05/06:02am 13.0 7.5 10.5 85 1.3 WNW 30 50 16 27 1012.1 1012.1 0.0
05/06:00am 13.1 7.9 10.3 83 1.5 WNW 28 43 15 23 1011.9 1011.9 0.0
05/05:54am 12.7 7.4 9.7 82 1.5 WNW 28 41 15 22 1011.7 1011.7 0.0
05/05:40am 12.8 7.3 9.3 79 1.8 WNW 28 48 15 26 1011.5 1011.5 0.0
05/05:30am 13.0 8.8 9.8 81 1.6 WNW 22 37 12 20 1011.4 1011.4 0.0
05/05:00am 13.1 8.5 9.7 80 1.7 WNW 24 35 13 19 1011.2 1011.2 0.0
05/04:30am 12.8 7.3 9.1 78 1.9 WNW 28 39 15 21 1011.1 1011.1 0.0
05/04:00am 13.0 7.5 9.1 77 2.0 W 28 39 15 21 1010.7 1010.8 0.0
05/03:30am 13.4 6.6 9.3 76 2.1 WNW 35 50 19 27 1010.4 1010.4 0.0
05/03:10am 13.5 7.2 9.6 77 2.0 W 33 44 18 24 1010.4 1010.4 0.0
05/03:00am 13.5 7.9 10.1 80 1.8 WNW 30 48 16 26 1010.5 1010.5 0.0
05/02:59am 13.5 7.9 10.3 81 1.7 WNW 30 48 16 26 1010.6 1010.7 0.0
05/02:34am 13.4 7.3 9.6 78 1.9 W 32 46 17 25 1010.6 1010.7 0.0
05/02:30am 13.4 7.2 9.5 77 2.0 W 32 46 17 25 1010.6 1010.7 0.0
05/02:24am 13.4 8.0 9.6 78 1.9 W 28 46 15 25 1010.5 1010.5 0.0
05/02:12am 13.8 7.8 10.0 78 2.0 W 32 43 17 23 1010.3 1010.3 0.0
05/02:02am 14.0 8.3 11.0 82 1.6 WNW 32 50 17 27 1010.4 1010.4 0.0
05/02:00am 13.9 8.6 11.2 84 1.4 WNW 30 43 16 23 1010.4 1010.4 0.0
05/01:30am 13.9 10.5 12.6 92 0.7 NW 22 30 12 16 1010.1 1010.1 0.0
05/01:00am 14.1 10.8 12.7 91 0.8 NW 22 32 12 17 1009.9 1009.9 0.0
05/12:30am 14.0 11.5 13.4 96 0.3 NW 19 24 10 13 1009.8 1009.8 0.0
05/12:00am 13.9 11.7 13.4 97 0.3 NW 17 22 9 12 1010.1 1010.1 0.0
 
Date/Time
CST
Temp
°C
App
Temp
°C
Dew
Point
°C
Rel
Hum
%
Delta-T
°C
Wind Press
QNH
hPa
Press
MSL
hPa
Rain since
9am
mm
Dir  Spd
km/h
Gust
km/h
Spd
kts
Gust
kts
04/11:30pm 13.3 11.8 13.0 98 0.2 NW 13 17 7 9 1010.2 1010.2 0.0
04/11:00pm 13.2 12.4 13.0 99 0.1 NW 9 11 5 6 1010.1 1010.1 0.0
04/10:30pm 13.2 12.0 12.7 97 0.3 NW 11 13 6 7 1010.1 1010.1 0.0
04/10:00pm 14.1 12.7 13.5 96 0.3 NW 13 17 7 9 1010.1 1010.1 0.0
04/09:30pm 14.8 12.4 13.7 93 0.6 NW 19 24 10 13 1010.4 1010.4 0.0
04/09:00pm 15.4 12.8 13.1 86 1.3 WNW 19 24 10 13 1010.0 1010.0 0.0
04/08:30pm 15.8 13.0 12.5 81 1.8 WNW 19 26 10 14 1009.5 1009.5 0.0
04/08:00pm 16.0 14.0 12.6 80 1.9 NW 15 20 8 11 1009.1 1009.1 0.0
04/07:30pm 16.8 14.0 12.5 76 2.4 NW 19 24 10 13 1008.8 1008.8 0.0
04/07:00pm 16.8 14.4 12.5 76 2.4 NW 17 26 9 14 1008.5 1008.5 0.0
04/06:46pm 16.9 14.0 12.4 75 2.5 NW 19 26 10 14 1008.3 1008.3 0.0
04/06:30pm 16.9 14.5 12.6 76 2.4 NNW 17 24 9 13 1008.0 1008.0 0.0
04/06:00pm 17.4 15.7 13.5 78 2.2 NW 15 17 8 9 1007.9 1007.9 0.0
04/05:30pm 18.2 15.0 13.1 72 2.9 NW 22 30 12 16 1008.0 1008.0 0.0
04/05:00pm 18.5 15.8 13.6 73 2.8 NW 20 28 11 15 1008.1 1008.1 0.0
04/04:30pm 18.8 16.5 14.1 74 2.7 NW 19 24 10 13 1007.9 1007.9 0.0
04/04:00pm 19.1 16.4 14.6 75 2.6 WNW 22 32 12 17 1007.6 1007.6 0.0
04/03:30pm 19.2 16.5 14.5 74 2.7 WNW 22 33 12 18 1008.0 1008.0 0.0
04/03:00pm 20.6 17.6 14.7 69 3.5 WNW 24 32 13 17 1007.9 1007.9 0.0
04/02:30pm 21.6 17.4 14.7 65 4.1 WNW 30 39 16 21 1007.8 1007.8 0.0
04/02:00pm 22.9 21.7 16.2 66 4.1 NNW 17 28 9 15 1007.9 1007.9 0.0
04/01:30pm 23.9 22.2 16.2 62 4.7 NNW 20 30 11 16 1008.3 1008.3 0.0
04/01:00pm 22.7 21.2 16.7 69 3.7 N 20 30 11 16 1009.1 1009.1 0.0
04/12:30pm 21.6 19.5 15.2 67 3.8 N 20 28 11 15 1009.6 1009.6 0.0
04/12:00pm 21.2 18.8 15.5 70 3.4 N 22 35 12 19 1010.6 1010.7 0.0
04/11:30am 20.2 17.0 14.3 69 3.4 N 24 37 13 20 1011.1 1011.1 0.0
04/11:00am 19.0 15.0 14.1 73 2.8 NNE 28 37 15 20 1011.6 1011.6 0.0
04/10:30am 17.1 13.6 13.4 79 2.1 NNE 24 37 13 20 1012.1 1012.1 0.0
04/10:00am 15.6 12.6 12.5 82 1.7 NE 20 26 11 14 1012.1 1012.1 0.0
04/09:30am 14.2 12.0 12.1 87 1.1 NE 15 22 8 12 1012.9 1012.9 0.0
04/09:00am 13.1 11.3 12.2 94 0.5 ENE 13 19 7 10 1013.4 1013.4 2.0
04/08:30am 12.2 11.3 11.4 95 0.4 SE 7 9 4 5 1014.3 1014.3 1.6
04/08:15am 12.1 10.0 11.3 95 0.4 NNE 13 22 7 12 1014.8 1014.8 1.4
04/08:00am 12.1 10.0 11.2 94 0.5 NNE 13 20 7 11 1014.9 1014.9 0.6
04/07:30am 11.6 9.4 10.8 95 0.4 NNE 13 17 7 9 1014.3 1014.3 0.2
04/07:00am 11.1 8.8 10.5 96 0.3 NE 13 17 7 9 1014.2 1014.2 0.2
04/06:30am 10.7 8.3 10.2 97 0.3 NE 13 13 7 7 1014.4 1014.4 0.2
04/06:00am 10.7 8.3 10.1 96 0.3 NE 13 15 7 8 1014.7 1014.7 0.2
04/05:30am 11.0 9.1 10.4 96 0.3 NE 11 13 6 7 1014.9 1014.9 0.2
04/05:00am 10.9 9.0 10.4 97 0.3 NNE 11 13 6 7 1014.8 1014.8 0.2
04/04:30am 11.7 9.2 10.9 95 0.4 NE 15 24 8 13 1014.5 1014.5 0.2
04/04:00am 11.6 9.2 11.3 98 0.2 NE 15 22 8 12 1014.8 1014.8 0.2
04/03:30am 11.7 9.8 11.7 100 0.0 NE 13 17 7 9 1015.6 1015.6 0.2
04/03:00am 11.2 9.5 11.2 100 0.0 NE 11 15 6 8 1016.2 1016.2 0.2
04/02:30am 11.4 9.8 11.4 100 0.0 NNE 11 15 6 8 1016.9 1016.9 0.2
04/02:00am 11.7 10.5 11.7 100 0.0 NE 9 13 5 7 1017.4 1017.4 0.2
04/01:30am 11.4 10.1 11.4 100 0.0 NE 9 11 5 6 1018.1 1018.1 0.2
04/01:00am 10.7 9.8 10.7 100 0.0 NE 6 7 3 4 1018.4 1018.4 0.2
04/12:30am 10.2 9.0 10.2 100 0.0 ENE 7 9 4 5 1018.4 1018.4 0.2
04/12:00am 9.6 7.5 9.6 100 0.0 NE 11 13 6 7 1018.8 1018.8 0.0
 
Date/Time
CST
Temp
°C
App
Temp
°C
Dew
Point
°C
Rel
Hum
%
Delta-T
°C
Wind Press
QNH
hPa
Press
MSL
hPa
Rain since
9am
mm
Dir  Spd
km/h
Gust
km/h
Spd
kts
Gust
kts
03/11:30pm 9.8 7.3 9.8 100 0.0 NE 13 17 7 9 1019.1 1019.1 0.0
03/11:00pm 9.9 7.8 9.9 100 0.0 NE 11 13 6 7 1019.5 1019.5 0.0
03/10:30pm 10.2 8.6 10.2 100 0.0 NE 9 13 5 7 1019.9 1019.9 0.0
03/10:00pm 10.4 8.1 10.4 100 0.0 ENE 13 17 7 9 1020.2 1020.2 0.0
03/09:30pm 8.7 6.7 8.7 100 0.0 E 9 13 5 7 1020.3 1020.3 0.0
03/09:00pm 8.7 7.0 8.4 98 0.1 NE 7 9 4 5 1020.4 1020.4 0.0
03/08:30pm 9.9 9.4 9.4 97 0.2 ESE 2 7 1 4 1020.4 1020.4 0.0
03/08:00pm 10.1 10.0 9.5 96 0.3 CALM 0 0 0 0 1020.3 1020.3 0.0
03/07:30pm 11.2 11.4 10.4 95 0.4 CALM 0 0 0 0 1020.0 1020.0 0.0
03/07:00pm 12.4 11.1 11.3 93 0.6 SSE 9 9 5 5 1019.7 1019.7 0.0
03/06:30pm 14.2 15.1 12.8 91 0.8 CALM 0 0 0 0 1019.7 1019.7 0.0
03/06:00pm 14.6 14.2 12.5 87 1.1 WSW 6 7 3 4 1019.6 1019.6 0.0
03/05:30pm 15.2 13.6 12.7 85 1.4 W 13 17 7 9 1019.5 1019.5 0.0
03/05:00pm 15.8 14.0 12.0 78 2.1 WNW 13 15 7 8 1019.3 1019.3 0.0
03/04:30pm 16.2 14.9 12.4 78 2.1 NW 11 15 6 8 1019.2 1019.2 0.0
03/04:00pm 16.7 14.4 11.8 73 2.7 NW 15 20 8 11 1019.2 1019.2 0.0
03/03:30pm 16.8 15.5 12.5 76 2.4 W 11 15 6 8 1019.2 1019.2 0.0
03/03:00pm 16.5 14.4 11.2 71 2.9 W 13 17 7 9 1019.2 1019.2 0.0
03/02:30pm 16.3 13.9 11.5 73 2.6 W 15 20 8 11 1019.3 1019.3 0.0
03/02:00pm 16.7 13.7 12.0 74 2.6 W 19 24 10 13 1019.3 1019.3 0.0
03/01:30pm 16.7 14.6 12.5 76 2.3 WSW 15 19 8 10 1019.5 1019.5 0.0
03/01:00pm 16.5 13.9 11.9 74 2.5 WSW 17 24 9 13 1019.7 1019.7 0.0
03/12:30pm 16.2 14.5 12.4 78 2.1 W 13 24 7 13 1019.8 1019.8 0.0
03/12:00pm 15.9 14.5 13.4 85 1.4 W 13 20 7 11 1020.0 1020.0 0.0
03/11:30am 15.1 13.7 13.5 90 0.9 WSW 13 17 7 9 1020.2 1020.2 0.0
03/11:00am 14.3 11.3 13.7 96 0.3 SSW 22 33 12 18 1020.0 1020.0 0.0
03/10:30am 16.0 14.3 13.5 85 1.4 WSW 15 22 8 12 1019.8 1019.8 0.0
03/10:00am 14.9 13.1 13.3 90 0.9 WSW 15 19 8 10 1019.8 1019.8 0.0
03/09:30am 14.0 12.7 13.8 99 0.1 W 13 19 7 10 1019.9 1019.9 0.0
03/09:00am 12.7 11.8 12.7 100 0.0 NW 9 20 5 11 1019.6 1019.6 0.0
03/08:30am 11.9 10.4 11.9 100 0.0 N 11 17 6 9 1019.0 1019.0 0.0
03/08:00am 10.7 9.2 10.7 100 0.0 N 9 11 5 6 1018.7 1018.7 0.0
03/07:30am 9.8 8.1 9.8 100 0.0 NE 9 11 5 6 1018.3 1018.3 0.0
03/07:00am 9.0 6.7 9.0 100 0.0 NE 11 13 6 7 1018.2 1018.2 0.0
03/06:30am 9.2 7.3 9.2 100 0.0 NNE 9 15 5 8 1017.8 1017.8 0.0
03/06:00am 8.5 6.5 8.5 100 0.0 ENE 9 9 5 5 1017.4 1017.4 0.0

Other formats

Comma delimited format used in spreadsheet applications
http://www.bom.gov.au/fwo/IDS60801/IDS60801.95663.axf

JavaScript Object Notation format (JSON) in row-major order
http://www.bom.gov.au/fwo/IDS60801/IDS60801.95663.json

Data quality

Most of these data are generated automatically and are frequently updated. Quality checks on data are not normally performed. It is possible for incorrect values to appear. Refer to information at About Latest Weather Observations and please check the disclaimer before using these data.